EBAW

Antwerp

Airport
ICAO code
EBAW
IATA Code
ANR
Summary
ICAO Region
EUR
ICAO Territory
Location

Deurne, Antwerpen,

Serving
Antwerpen
Elevation
39 ft
Coordinates
51° 11' 23" N , 4° 27' 44" E
KCC
Metar
EBAW 191050Z 31015G27KT 9999 SCT016 BKN019 10/07 Q1010 NOSIG

Description

Antwerpen International Airport is located 2 km from the city of Antwerp, Belgium.

Climatology

Temperate Marine climate/Oceanic climate (Köppen climate classification Cfb) - Moderately cool summer and comparatively warm winter.

Runways

Designator Length Width Surface Rops
11/29 1510 45 ASP Yes/Yes

Airport map

Aerial View

SKYbrary Partners:

Safety knowledge contributed by: